Time;durP1;ratioP1;P1;durP2;ratioP2;P2;SDS_P1;SDS_P2;PMS_P1;PMS_P2;Temp;Humidity;BMP_temperature;BMP_pressure;BME280_temperature;BME280_humidity;BME280_pressure;Samples;Min_cycle;Max_cycle;Signal;HPM_P1;HPM_P2
2023/07/07 00:00:35;;;;;;;3.13;1.90;;;14.70;99.90;;;;;;5089268;28;20488;-85
2023/07/07 00:03:02;;;;;;;3.55;1.83;;;14.70;99.90;;;;;;5076153;28;20029;-85
2023/07/07 00:05:28;;;;;;;2.53;1.80;;;14.60;99.90;;;;;;5079593;28;20450;-85
2023/07/07 00:07:53;;;;;;;4.55;2.42;;;14.60;99.90;;;;;;5079612;28;20021;-85
2023/07/07 00:10:19;;;;;;;8.60;2.33;;;14.60;99.90;;;;;;5083737;28;20036;-85
2023/07/07 00:12:46;;;;;;;4.97;2.13;;;14.50;99.90;;;;;;5079733;28;20396;-85
2023/07/07 00:15:13;;;;;;;4.03;1.75;;;14.50;99.90;;;;;;5081770;28;20051;-84
2023/07/07 00:17:42;;;;;;;1.98;1.83;;;14.40;99.90;;;;;;5086252;28;20062;-85
2023/07/07 00:20:10;;;;;;;5.65;2.47;;;14.30;99.90;;;;;;5085409;28;20444;-85
2023/07/07 00:22:36;;;;;;;2.90;2.60;;;14.30;99.90;;;;;;5080842;28;20028;-85
2023/07/07 00:25:03;;;;;;;4.20;1.92;;;14.20;99.90;;;;;;5073355;28;20025;-85
2023/07/07 00:27:29;;;;;;;2.22;1.88;;;14.20;99.90;;;;;;5083210;28;20152;-85
2023/07/07 00:29:54;;;;;;;7.65;2.65;;;14.10;99.90;;;;;;5081524;28;20024;-85
2023/07/07 00:32:20;;;;;;;3.05;2.00;;;14.10;99.90;;;;;;5069444;28;20051;-85
2023/07/07 00:34:45;;;;;;;5.60;2.20;;;14.00;99.90;;;;;;5082084;28;20028;-85
2023/07/07 00:37:11;;;;;;;2.05;1.52;;;14.10;99.90;;;;;;5080778;28;20028;-85
2023/07/07 00:39:36;;;;;;;2.05;1.80;;;14.10;99.90;;;;;;5083053;28;20447;-85
2023/07/07 00:42:02;;;;;;;2.65;1.88;;;14.10;99.90;;;;;;5075853;28;20082;-85
2023/07/07 00:44:50;;;;;;;7.18;1.80;;;14.10;99.90;;;;;;5080451;28;20378;-85
2023/07/07 00:47:16;;;;;;;2.17;1.90;;;14.20;99.90;;;;;;5065614;28;20054;-85
2023/07/07 00:49:44;;;;;;;2.47;2.08;;;14.20;99.90;;;;;;5079650;28;20025;-85
2023/07/07 00:52:10;;;;;;;5.40;2.50;;;14.10;99.90;;;;;;5081004;28;20060;-85
2023/07/07 00:54:36;;;;;;;3.35;1.70;;;14.20;99.90;;;;;;5079799;28;20448;-85
2023/07/07 00:57:04;;;;;;;2.88;1.98;;;14.20;99.90;;;;;;5078207;28;20031;-85
2023/07/07 00:59:34;;;;;;;5.93;2.35;;;14.20;99.90;;;;;;5083262;28;20052;-85
2023/07/07 01:02:03;;;;;;;2.10;1.90;;;14.20;99.90;;;;;;5079595;28;20632;-85
2023/07/07 01:04:30;;;;;;;2.78;2.17;;;14.20;99.90;;;;;;5078159;28;20028;-86
2023/07/07 01:07:08;;;;;;;6.70;3.08;;;14.10;99.90;;;;;;5079787;28;20334;-85
2023/07/07 01:09:33;;;;;;;3.85;1.95;;;14.10;99.90;;;;;;5075261;28;20131;-85
2023/07/07 01:11:59;;;;;;;2.53;1.88;;;14.10;99.90;;;;;;5086344;28;20478;-85
2023/07/07 01:14:29;;;;;;;3.15;1.85;;;14.10;99.90;;;;;;5055356;28;20028;-85
2023/07/07 01:17:07;;;;;;;2.08;1.67;;;14.10;99.90;;;;;;5078601;28;20029;-85
2023/07/07 01:20:12;;;;;;;1.83;1.63;;;14.20;99.90;;;;;;5080089;28;20524;-85
2023/07/07 01:23:17;;;;;;;2.78;1.90;;;14.20;99.90;;;;;;5082243;28;20036;-86
2023/07/07 01:26:22;;;;;;;1.88;1.70;;;14.20;99.90;;;;;;5080041;28;20381;-85
2023/07/07 01:29:18;;;;;;;2.60;1.88;;;14.20;99.90;;;;;;5074421;28;20333;-85
2023/07/07 01:31:52;;;;;;;;;;;14.20;99.90;;;;;;5085378;28;20089;-86
2023/07/07 01:34:18;;;;;;;2.92;2.22;;;14.30;99.90;;;;;;5073638;28;21060;-85
2023/07/07 01:36:44;;;;;;;1.77;1.58;;;14.20;99.90;;;;;;5080355;28;20169;-85
2023/07/07 01:39:12;;;;;;;3.53;2.00;;;14.30;99.90;;;;;;5078347;28;20108;-85
2023/07/07 01:41:49;;;;;;;1.77;1.67;;;14.20;99.90;;;;;;5080341;28;20054;-84
2023/07/07 01:44:36;;;;;;;4.10;2.33;;;14.30;99.90;;;;;;5085330;28;20024;-85
2023/07/07 01:47:10;;;;;;;3.00;1.80;;;14.20;99.90;;;;;;5061120;28;20024;-84
2023/07/07 01:49:39;;;;;;;1.73;1.58;;;14.20;99.90;;;;;;5088379;28;20521;-85
2023/07/07 01:52:23;;;;;;;2.28;1.63;;;14.20;99.90;;;;;;5080853;28;20059;-85
2023/07/07 01:54:56;;;;;;;2.75;1.70;;;14.20;99.90;;;;;;5058370;28;20044;-84
2023/07/07 01:57:26;;;;;;;2.40;2.00;;;14.10;99.90;;;;;;5077880;28;20021;-85
2023/07/07 01:59:51;;;;;;;3.70;2.38;;;14.00;99.90;;;;;;5084017;28;20327;-84
2023/07/07 02:02:22;;;;;;;4.45;2.30;;;14.00;99.90;;;;;;5066387;28;20493;-84
2023/07/07 02:04:47;;;;;;;3.10;2.00;;;13.90;99.90;;;;;;5078327;28;20040;-84
2023/07/07 02:07:13;;;;;;;2.53;2.08;;;13.90;99.90;;;;;;5077424;28;20124;-85
2023/07/07 02:09:39;;;;;;;2.38;1.63;;;13.80;99.90;;;;;;5083534;28;20032;-84
2023/07/07 02:12:05;;;;;;;3.33;1.95;;;13.80;99.90;;;;;;5075283;28;20028;-84
2023/07/07 02:14:31;;;;;;;6.38;2.63;;;13.70;99.90;;;;;;5079329;28;20509;-84
2023/07/07 02:16:56;;;;;;;4.50;2.35;;;13.70;99.90;;;;;;5078272;28;20032;-85
2023/07/07 02:19:22;;;;;;;1.98;1.40;;;13.80;99.90;;;;;;5069949;28;20425;-85
2023/07/07 02:21:47;;;;;;;2.90;1.95;;;13.80;99.90;;;;;;5084984;28;20937;-85
2023/07/07 02:24:13;;;;;;;1.67;1.58;;;13.80;99.90;;;;;;5080550;28;20024;-85
2023/07/07 02:26:38;;;;;;;2.20;1.58;;;13.90;99.90;;;;;;5073301;28;20029;-84
2023/07/07 02:29:04;;;;;;;2.35;1.95;;;13.90;99.90;;;;;;5082186;28;20043;-85
2023/07/07 02:31:29;;;;;;;5.53;2.00;;;13.90;99.90;;;;;;5082005;28;20054;-85
2023/07/07 02:33:55;;;;;;;3.80;2.40;;;13.80;99.90;;;;;;5078080;28;20393;-85
2023/07/07 02:36:21;;;;;;;3.20;2.17;;;13.80;99.90;;;;;;5070689;28;20036;-85
2023/07/07 02:38:47;;;;;;;5.40;2.17;;;13.70;99.90;;;;;;5080072;28;20028;-84
2023/07/07 02:41:12;;;;;;;4.78;2.08;;;13.70;99.90;;;;;;5079402;28;20634;-84
2023/07/07 02:43:38;;;;;;;6.15;2.40;;;13.60;99.90;;;;;;5073570;28;20051;-84
2023/07/07 02:46:04;;;;;;;4.80;2.25;;;13.60;99.90;;;;;;5079154;28;20024;-84
2023/07/07 02:48:30;;;;;;;2.75;1.92;;;13.60;99.90;;;;;;5081858;28;20527;-84
2023/07/07 02:50:59;;;;;;;2.85;1.83;;;13.60;99.90;;;;;;5085370;28;20102;-85
2023/07/07 02:53:27;;;;;;;8.38;2.67;;;13.60;99.90;;;;;;5081675;28;20507;-84
2023/07/07 02:55:53;;;;;;;3.35;2.30;;;13.60;99.90;;;;;;5079855;28;20523;-84
2023/07/07 02:58:19;;;;;;;4.03;2.25;;;13.60;99.90;;;;;;5080656;28;20029;-84
2023/07/07 03:00:45;;;;;;;7.70;2.38;;;13.50;99.90;;;;;;5077617;28;20035;-85
2023/07/07 03:03:11;;;;;;;4.30;2.50;;;13.60;99.90;;;;;;5079821;28;20024;-85
2023/07/07 03:05:36;;;;;;;2.65;1.98;;;13.50;99.90;;;;;;5087950;28;20059;-84
2023/07/07 03:08:02;;;;;;;4.10;2.08;;;13.50;99.90;;;;;;5086944;28;20051;-85
2023/07/07 03:10:31;;;;;;;4.47;2.38;;;13.50;99.90;;;;;;5082203;28;20040;-85
2023/07/07 03:12:57;;;;;;;2.30;1.80;;;13.50;99.90;;;;;;5086245;28;20077;-84
2023/07/07 03:15:22;;;;;;;4.82;2.28;;;13.50;99.90;;;;;;5084862;28;20036;-84
2023/07/07 03:17:48;;;;;;;3.13;1.92;;;13.50;99.90;;;;;;5083482;28;20055;-84
2023/07/07 03:20:14;;;;;;;4.28;2.80;;;13.50;99.90;;;;;;5086584;28;20024;-85
2023/07/07 03:22:39;;;;;;;10.20;2.30;;;13.40;99.90;;;;;;5086283;28;20115;-84
2023/07/07 03:25:06;;;;;;;3.75;2.30;;;13.40;99.90;;;;;;5073553;28;20440;-85
2023/07/07 03:27:32;;;;;;;3.78;2.15;;;13.40;99.90;;;;;;5086619;28;20028;-85
2023/07/07 03:29:58;;;;;;;2.70;1.98;;;13.40;99.90;;;;;;5087443;28;20032;-85
2023/07/07 03:32:26;;;;;;;9.07;2.60;;;13.50;99.90;;;;;;5084846;28;20555;-85
2023/07/07 03:34:51;;;;;;;5.13;2.65;;;13.50;99.90;;;;;;5086432;28;20039;-85
2023/07/07 03:37:17;;;;;;;2.40;2.20;;;13.50;99.90;;;;;;5084755;28;20024;-85
2023/07/07 03:39:42;;;;;;;3.85;2.45;;;13.50;99.90;;;;;;5083857;28;20066;-85
2023/07/07 03:42:08;;;;;;;3.40;2.28;;;13.50;99.90;;;;;;5084702;28;20036;-85
2023/07/07 03:44:35;;;;;;;3.45;2.08;;;13.40;99.90;;;;;;5083292;28;20032;-85
2023/07/07 03:47:01;;;;;;;5.32;2.55;;;13.40;99.90;;;;;;5085417;28;20024;-84
2023/07/07 03:49:26;;;;;;;3.13;2.20;;;13.40;99.90;;;;;;5084850;28;20032;-84
2023/07/07 03:51:52;;;;;;;5.90;1.95;;;13.40;99.90;;;;;;5080678;28;20101;-85
2023/07/07 03:54:17;;;;;;;2.67;1.83;;;13.40;99.90;;;;;;5079331;28;20109;-85
2023/07/07 03:56:43;;;;;;;4.97;2.28;;;13.40;99.90;;;;;;5081166;28;20090;-85
2023/07/07 03:59:08;;;;;;;4.00;2.60;;;13.40;99.90;;;;;;5086000;28;20032;-85
2023/07/07 04:01:34;;;;;;;9.25;2.67;;;13.40;99.90;;;;;;5081498;28;20027;-85
2023/07/07 04:03:59;;;;;;;8.98;3.30;;;13.40;99.90;;;;;;5085974;28;20081;-85
2023/07/07 04:06:25;;;;;;;4.65;2.20;;;13.40;99.90;;;;;;5084260;28;20403;-85
2023/07/07 04:08:51;;;;;;;4.40;2.35;;;13.40;99.90;;;;;;5086147;28;20480;-84
2023/07/07 04:11:20;;;;;;;3.53;2.72;;;13.50;99.90;;;;;;5084886;28;20028;-84
2023/07/07 04:13:48;;;;;;;6.25;2.50;;;13.50;99.90;;;;;;5086258;28;20060;-85
2023/07/07 04:16:23;;;;;;;5.65;3.08;;;13.50;99.90;;;;;;5085517;28;20032;-85
2023/07/07 04:18:50;;;;;;;3.03;2.30;;;13.60;99.90;;;;;;5083985;28;20077;-86
2023/07/07 04:21:25;;;;;;;4.93;2.40;;;13.50;99.90;;;;;;5081710;28;20036;-85
2023/07/07 04:23:54;;;;;;;4.13;2.58;;;13.50;99.90;;;;;;5059393;28;20043;-85
2023/07/07 04:26:20;;;;;;;4.50;2.88;;;13.60;99.90;;;;;;5082423;28;20048;-85
2023/07/07 04:28:46;;;;;;;3.58;2.17;;;13.60;99.90;;;;;;5085773;28;20029;-85
2023/07/07 04:31:13;;;;;;;10.15;3.10;;;13.60;99.90;;;;;;5083378;28;20041;-85
2023/07/07 04:33:40;;;;;;;4.72;2.50;;;13.60;99.90;;;;;;5084711;28;20393;-84
2023/07/07 04:36:08;;;;;;;9.50;3.13;;;13.70;99.90;;;;;;5086530;28;20047;-84
2023/07/07 04:38:34;;;;;;;5.07;2.45;;;13.70;99.90;;;;;;5086594;28;20016;-85
2023/07/07 04:41:13;;;;;;;3.03;2.40;;;13.80;99.90;;;;;;5075733;28;20111;-83
2023/07/07 04:43:41;;;;;;;5.63;2.92;;;13.80;99.90;;;;;;5083547;28;20053;-83
2023/07/07 04:46:09;;;;;;;7.15;2.67;;;13.90;99.90;;;;;;5078000;28;20039;-83
2023/07/07 04:48:35;;;;;;;5.95;2.70;;;14.00;99.90;;;;;;5083585;28;20024;-83
2023/07/07 04:51:06;;;;;;;6.53;2.78;;;14.00;99.90;;;;;;5076469;28;20024;-83
2023/07/07 04:53:36;;;;;;;5.13;3.13;;;14.10;99.90;;;;;;5080491;28;20237;-83
2023/07/07 04:56:09;;;;;;;7.30;3.30;;;14.20;99.90;;;;;;5084358;28;20043;-83
2023/07/07 04:58:36;;;;;;;6.43;2.30;;;14.30;99.90;;;;;;5083665;28;20031;-83
2023/07/07 05:01:09;;;;;;;5.63;2.75;;;14.50;99.90;;;;;;5075546;28;20035;-83
2023/07/07 05:03:36;;;;;;;2.63;2.25;;;14.50;99.90;;;;;;5078830;28;20070;-83
2023/07/07 05:06:03;;;;;;;9.32;2.78;;;14.50;99.90;;;;;;5081583;28;20492;-83
2023/07/07 05:08:33;;;;;;;4.78;2.60;;;14.70;99.90;;;;;;5084647;28;20486;-83
2023/07/07 05:10:59;;;;;;;8.55;2.28;;;14.70;99.90;;;;;;5083650;28;20286;-83
2023/07/07 05:13:25;;;;;;;3.20;1.88;;;14.80;99.90;;;;;;5080242;28;20024;-83
2023/07/07 05:16:02;;;;;;;11.52;2.20;;;14.90;99.90;;;;;;5082768;28;20042;-83
2023/07/07 05:18:28;;;;;;;4.90;2.83;;;14.90;99.90;;;;;;5081824;28;20039;-84
2023/07/07 05:20:53;;;;;;;6.50;2.85;;;15.00;99.90;;;;;;5086552;28;20527;-83
2023/07/07 05:23:19;;;;;;;3.40;2.03;;;15.10;99.90;;;;;;5083707;28;20055;-83
2023/07/07 05:25:45;;;;;;;2.75;2.45;;;15.10;99.90;;;;;;5082694;28;20028;-83
2023/07/07 05:28:10;;;;;;;3.60;2.13;;;15.10;99.90;;;;;;5078792;28;20020;-83
2023/07/07 05:30:38;;;;;;;6.45;2.60;;;15.20;99.90;;;;;;5068168;28;20526;-83
2023/07/07 05:33:04;;;;;;;3.67;2.17;;;15.20;99.90;;;;;;5084742;28;20564;-83
2023/07/07 05:35:29;;;;;;;3.80;2.20;;;15.30;99.90;;;;;;5066003;28;20132;-83
2023/07/07 05:37:55;;;;;;;3.90;2.25;;;15.30;99.90;;;;;;5064912;28;20031;-83
2023/07/07 05:40:20;;;;;;;4.10;2.38;;;15.40;99.90;;;;;;5082018;28;20126;-83
2023/07/07 05:42:46;;;;;;;6.95;3.35;;;15.50;99.90;;;;;;5085357;28;20365;-83
2023/07/07 05:45:11;;;;;;;5.13;1.80;;;15.60;99.90;;;;;;5081996;28;20039;-83
2023/07/07 05:47:37;;;;;;;5.88;2.50;;;15.60;99.90;;;;;;5079261;28;20024;-83
2023/07/07 05:50:03;;;;;;;7.75;2.25;;;15.70;99.90;;;;;;5085978;28;20063;-83
2023/07/07 05:52:28;;;;;;;3.38;2.20;;;15.70;99.90;;;;;;5076347;28;20385;-83
2023/07/07 05:54:54;;;;;;;6.50;2.13;;;15.80;99.90;;;;;;5084242;28;20062;-83
2023/07/07 05:57:19;;;;;;;4.00;2.17;;;15.80;99.90;;;;;;5082734;28;20096;-84
2023/07/07 05:59:45;;;;;;;7.72;1.90;;;15.90;99.90;;;;;;5083833;28;20480;-83
2023/07/07 06:02:11;;;;;;;2.55;2.22;;;15.90;99.90;;;;;;5081013;28;20025;-83
2023/07/07 06:04:36;;;;;;;3.75;1.90;;;16.00;99.90;;;;;;5085652;28;20066;-83
2023/07/07 06:07:02;;;;;;;3.08;2.08;;;16.00;99.90;;;;;;5081553;28;20035;-83
2023/07/07 06:09:27;;;;;;;8.02;2.17;;;16.10;99.90;;;;;;5081218;28;20036;-83
2023/07/07 06:11:53;;;;;;;4.72;2.28;;;16.20;99.90;;;;;;5083174;28;20028;-84
2023/07/07 06:14:18;;;;;;;7.05;2.25;;;16.30;99.90;;;;;;5082928;28;20469;-84
2023/07/07 06:16:44;;;;;;;4.38;2.47;;;16.40;99.90;;;;;;5085250;28;20035;-83
2023/07/07 06:19:09;;;;;;;7.80;2.60;;;16.40;99.90;;;;;;5079412;28;20496;-84
2023/07/07 06:21:35;;;;;;;4.68;2.42;;;16.40;99.90;;;;;;5079354;28;20035;-83
2023/07/07 06:24:00;;;;;;;5.35;2.50;;;16.50;99.90;;;;;;5082984;28;20086;-83
2023/07/07 06:26:26;;;;;;;3.80;2.45;;;16.50;99.90;;;;;;5080218;28;20028;-83
2023/07/07 06:28:52;;;;;;;3.28;2.08;;;16.60;99.90;;;;;;5083163;28;20032;-83
2023/07/07 06:31:17;;;;;;;7.68;2.00;;;16.70;99.90;;;;;;5083999;28;20020;-83
2023/07/07 06:33:43;;;;;;;8.85;2.33;;;16.80;99.90;;;;;;5088969;28;20043;-83
2023/07/07 06:36:08;;;;;;;4.20;2.10;;;16.80;99.90;;;;;;5085832;28;20459;-83
2023/07/07 06:38:34;;;;;;;8.00;2.45;;;16.90;99.90;;;;;;5084874;28;20093;-83
2023/07/07 06:40:59;;;;;;;8.18;2.88;;;17.00;99.90;;;;;;5084943;28;20059;-83
2023/07/07 06:43:25;;;;;;;9.25;2.35;;;17.20;99.90;;;;;;5088335;28;20115;-83
2023/07/07 06:45:55;;;;;;;4.80;2.58;;;17.30;99.90;;;;;;5085488;28;20435;-83
2023/07/07 06:48:22;;;;;;;8.27;2.78;;;17.30;99.90;;;;;;5084511;28;20052;-83
2023/07/07 06:50:48;;;;;;;2.97;2.03;;;17.40;99.90;;;;;;5088570;28;20543;-83
2023/07/07 06:53:14;;;;;;;5.20;2.03;;;17.40;99.90;;;;;;5082403;28;20479;-83
2023/07/07 06:55:40;;;;;;;4.63;2.50;;;17.50;99.90;;;;;;5088251;28;20062;-83
2023/07/07 06:58:07;;;;;;;7.32;2.65;;;17.60;99.90;;;;;;5087190;28;20028;-83
2023/07/07 07:00:33;;;;;;;13.63;3.03;;;17.80;99.90;;;;;;5084005;28;20043;-83
2023/07/07 07:02:58;;;;;;;6.60;2.88;;;17.90;99.90;;;;;;5086448;28;20370;-83
2023/07/07 07:05:24;;;;;;;16.52;2.75;;;18.00;99.90;;;;;;5087507;28;20031;-83
2023/07/07 07:07:49;;;;;;;7.30;2.08;;;18.00;99.90;;;;;;5079377;28;20024;-83
2023/07/07 07:10:15;;;;;;;8.25;3.00;;;18.10;99.90;;;;;;5088000;28;20492;-83
2023/07/07 07:12:40;;;;;;;8.80;2.83;;;18.30;99.90;;;;;;5081832;28;20024;-82
2023/07/07 07:15:07;;;;;;;14.00;2.95;;;18.50;99.90;;;;;;5086607;28;20511;-83
2023/07/07 07:17:33;;;;;;;12.00;2.60;;;18.60;99.90;;;;;;5083258;28;20073;-82
2023/07/07 07:19:58;;;;;;;6.68;2.92;;;18.80;99.90;;;;;;5082279;28;20064;-83
2023/07/07 07:22:24;;;;;;;10.15;2.55;;;18.80;99.90;;;;;;5088892;28;20024;-83
2023/07/07 07:24:50;;;;;;;3.97;2.22;;;18.90;99.90;;;;;;5085934;28;20036;-83
2023/07/07 07:27:15;;;;;;;6.03;2.67;;;19.00;99.90;;;;;;5082984;28;20017;-83
2023/07/07 07:29:43;;;;;;;21.38;3.00;;;19.10;99.90;;;;;;5086016;28;20425;-82
2023/07/07 07:32:09;;;;;;;10.95;2.63;;;19.30;99.90;;;;;;5089082;28;20055;-83
2023/07/07 07:34:34;;;;;;;7.22;2.10;;;19.40;99.90;;;;;;5079126;28;20434;-82
2023/07/07 07:37:01;;;;;;;3.75;2.22;;;19.40;99.90;;;;;;5076381;28;20039;-83
2023/07/07 07:39:28;;;;;;;5.13;2.60;;;19.50;99.90;;;;;;5079994;28;20016;-83
2023/07/07 07:41:54;;;;;;;4.72;2.63;;;19.60;99.90;;;;;;5076094;28;20106;-83
2023/07/07 07:44:22;;;;;;;5.10;2.20;;;19.80;99.90;;;;;;5064352;28;20393;-83
2023/07/07 07:46:49;;;;;;;4.30;2.20;;;19.90;99.90;;;;;;5084338;28;20059;-83
2023/07/07 07:49:15;;;;;;;5.25;2.33;;;20.00;99.90;;;;;;5084014;28;20074;-83
2023/07/07 07:51:41;;;;;;;7.20;2.28;;;20.00;99.90;;;;;;5078863;28;20024;-82
2023/07/07 07:54:10;;;;;;;9.02;2.95;;;20.10;99.90;;;;;;5082467;28;20033;-83
2023/07/07 07:56:36;;;;;;;9.30;2.30;;;20.20;99.90;;;;;;5085170;28;20044;-83
2023/07/07 07:59:02;;;;;;;8.30;2.45;;;20.30;99.90;;;;;;5085195;28;20557;-84
2023/07/07 08:01:28;;;;;;;9.60;2.38;;;20.40;99.90;;;;;;5067272;28;20462;-85
2023/07/07 08:03:55;;;;;;;4.88;2.80;;;20.60;99.90;;;;;;5064966;28;20485;-83
2023/07/07 08:06:20;;;;;;;6.43;2.60;;;20.60;99.90;;;;;;5080903;28;20040;-84
2023/07/07 08:08:46;;;;;;;4.07;2.45;;;20.70;99.90;;;;;;5084391;28;20024;-85
2023/07/07 08:11:15;;;;;;;7.00;2.08;;;20.70;99.90;;;;;;5079530;28;20028;-84
2023/07/07 08:13:40;;;;;;;3.80;2.33;;;20.80;99.90;;;;;;5087408;28;20626;-83
2023/07/07 08:16:10;;;;;;;3.50;2.00;;;20.80;99.90;;;;;;5081727;28;20143;-83
2023/07/07 08:18:35;;;;;;;4.03;1.98;;;20.80;99.90;;;;;;5079605;28;20055;-82
2023/07/07 08:21:01;;;;;;;10.80;1.70;;;20.90;99.90;;;;;;5085245;28;20058;-82
2023/07/07 08:23:26;;;;;;;4.70;2.28;;;21.10;94.30;;;;;;5080824;28;20024;-83
2023/07/07 08:25:52;;;;;;;2.63;1.65;;;21.20;99.00;;;;;;5086485;28;20039;-84
2023/07/07 08:28:18;;;;;;;4.65;1.85;;;21.20;99.70;;;;;;5083915;28;20043;-83
2023/07/07 08:30:43;;;;;;;5.35;1.77;;;21.20;99.90;;;;;;5086822;28;20028;-83
2023/07/07 08:33:09;;;;;;;3.53;1.92;;;21.30;95.10;;;;;;5077435;28;20044;-83
2023/07/07 08:35:34;;;;;;;8.52;2.10;;;21.30;99.80;;;;;;5073135;28;20040;-84
2023/07/07 08:38:01;;;;;;;7.03;1.85;;;21.40;99.70;;;;;;5073898;28;20029;-84
2023/07/07 08:40:35;;;;;;;3.67;2.22;;;21.50;95.10;;;;;;5077265;28;20028;-84
2023/07/07 08:43:03;;;;;;;6.53;2.03;;;21.40;93.90;;;;;;5086201;28;20112;-83
2023/07/07 08:45:28;;;;;;;6.47;2.08;;;21.50;94.80;;;;;;5083331;28;20032;-82
2023/07/07 08:47:58;;;;;;;6.05;2.30;;;21.60;89.30;;;;;;5080763;28;20032;-83
2023/07/07 08:50:42;;;;;;;3.08;2.25;;;21.80;95.20;;;;;;5086437;28;20118;-84
2023/07/07 08:53:22;;;;;;;3.47;1.80;;;21.80;96.10;;;;;;5081993;28;20477;-82
2023/07/07 08:56:28;;;;;;;5.55;1.80;;;21.80;91.30;;;;;;5072716;28;20032;-83
2023/07/07 08:59:07;;;;;;;10.38;1.73;;;21.70;92.80;;;;;;5077178;28;20028;-84
2023/07/07 09:01:49;;;;;;;8.18;2.75;;;21.70;96.00;;;;;;5082163;28;20043;-84
2023/07/07 09:04:20;;;;;;;4.63;2.08;;;21.70;94.30;;;;;;5084826;28;20048;-84
2023/07/07 09:07:08;;;;;;;5.13;2.10;;;21.70;92.70;;;;;;5077695;28;20436;-84
2023/07/07 09:09:56;;;;;;;6.40;2.15;;;21.80;97.30;;;;;;5080962;28;20409;-85
2023/07/07 09:12:46;;;;;;;4.93;1.95;;;21.80;99.70;;;;;;5081669;28;20285;-84
2023/07/07 09:15:22;;;;;;;3.08;1.90;;;21.90;96.30;;;;;;5080873;28;20043;-84
2023/07/07 09:18:16;;;;;;;3.38;2.03;;;22.00;95.30;;;;;;5078177;28;20385;-83
2023/07/07 09:20:50;;;;;;;3.58;1.92;;;22.10;94.10;;;;;;5076864;28;20036;-82
2023/07/07 09:23:19;;;;;;;2.72;1.50;;;22.10;91.40;;;;;;5078843;28;20127;-84
2023/07/07 09:26:01;;;;;;;2.45;1.77;;;22.20;88.20;;;;;;5081481;28;20020;-84
2023/07/07 09:28:31;;;;;;;5.80;2.10;;;22.20;95.60;;;;;;5075139;28;20048;-84
2023/07/07 09:31:03;;;;;;;2.55;1.95;;;22.20;94.20;;;;;;5078291;28;20028;-84
2023/07/07 09:33:28;;;;;;;3.00;1.90;;;22.30;95.30;;;;;;5071809;28;20044;-84
2023/07/07 09:36:06;;;;;;;2.35;1.80;;;22.40;94.80;;;;;;5070324;28;20040;-84
2023/07/07 09:39:03;;;;;;;4.22;2.13;;;22.40;93.60;;;;;;5075192;28;20082;-84
2023/07/07 09:41:49;;;;;;;4.40;2.55;;;22.60;78.10;;;;;;5082347;28;20028;-84
2023/07/07 09:44:14;;;;;;;;;;;22.60;86.00;;;;;;5077922;28;20047;-84
2023/07/07 09:47:29;;;;;;;5.20;2.10;;;22.60;94.00;;;;;;5078636;28;19908;-84
2023/07/07 09:50:07;;;;;;;3.55;2.05;;;22.70;91.70;;;;;;5077650;28;20036;-83
2023/07/07 09:52:46;;;;;;;2.45;1.83;;;22.80;91.20;;;;;;5079069;28;20108;-84
2023/07/07 09:55:28;;;;;;;3.33;2.15;;;22.80;87.50;;;;;;5077917;28;20047;-85
2023/07/07 09:58:17;;;;;;;5.00;1.95;;;22.80;83.10;;;;;;5074348;28;20033;-82
2023/07/07 10:00:47;;;;;;;4.78;1.90;;;22.90;83.00;;;;;;5071394;28;20150;-84
2023/07/07 10:03:25;;;;;;;5.63;2.03;;;23.00;72.10;;;;;;5076737;28;20176;-83
2023/07/07 10:05:52;;;;;;;5.65;2.05;;;23.10;76.70;;;;;;5077908;28;20116;-84
2023/07/07 10:08:18;;;;;;;5.22;1.95;;;23.10;76.70;;;;;;5079988;28;20469;-83
2023/07/07 10:10:54;;;;;;;2.60;2.00;;;23.10;74.80;;;;;;5070892;28;20082;-83
2023/07/07 10:13:21;;;;;;;4.30;2.03;;;23.00;78.60;;;;;;5079803;28;20028;-84
2023/07/07 10:15:58;;;;;;;2.85;1.95;;;23.20;77.80;;;;;;5075381;28;20399;-84
2023/07/07 10:18:27;;;;;;;2.95;1.88;;;23.20;77.70;;;;;;5073498;28;20105;-84
2023/07/07 10:20:56;;;;;;;4.55;1.90;;;23.30;79.10;;;;;;5083814;28;20024;-84
2023/07/07 10:23:22;;;;;;;3.97;1.70;;;23.40;73.60;;;;;;5085211;28;20484;-84
2023/07/07 10:25:47;;;;;;;2.60;1.52;;;23.40;66.60;;;;;;5082247;28;20028;-84
2023/07/07 10:28:16;;;;;;;3.13;1.90;;;23.40;65.40;;;;;;5077410;28;20405;-84
2023/07/07 10:30:44;;;;;;;4.18;1.80;;;23.50;67.00;;;;;;5076800;28;20036;-85
2023/07/07 10:33:13;;;;;;;2.47;1.45;;;23.60;64.10;;;;;;5075074;28;20041;-84
2023/07/07 10:35:39;;;;;;;5.22;1.35;;;23.60;58.70;;;;;;5067437;28;20047;-84
2023/07/07 10:38:05;;;;;;;4.07;1.90;;;23.50;57.10;;;;;;5065734;28;20024;-85
2023/07/07 10:40:31;;;;;;;3.22;1.67;;;23.60;59.60;;;;;;5063915;28;20390;-83
2023/07/07 10:42:58;;;;;;;5.22;1.73;;;23.70;69.20;;;;;;5062788;28;20055;-83
2023/07/07 10:45:24;;;;;;;3.08;1.73;;;23.80;57.00;;;;;;5040902;28;20033;-84
2023/07/07 10:47:50;;;;;;;4.50;1.90;;;23.70;57.80;;;;;;5069974;28;20028;-84
2023/07/07 10:50:20;;;;;;;3.22;1.70;;;23.70;60.40;;;;;;5065090;28;20378;-84
2023/07/07 10:53:34;;;;;;;7.18;2.05;;;23.80;62.90;;;;;;5072198;28;20490;-84
2023/07/07 10:56:26;;;;;;;2.00;1.50;;;23.80;58.70;;;;;;5048065;28;20048;-85
2023/07/07 10:59:27;;;;;;;2.42;1.83;;;23.90;59.70;;;;;;5058575;28;20481;-85
2023/07/07 11:02:04;;;;;;;7.18;1.60;;;24.00;59.80;;;;;;5062917;28;20016;-83
2023/07/07 11:04:44;;;;;;;5.05;1.80;;;24.20;58.30;;;;;;5069587;28;20028;-85
2023/07/07 11:07:35;;;;;;;3.72;2.08;;;24.40;58.30;;;;;;5066228;28;20083;-85
2023/07/07 11:10:18;;;;;;;3.15;1.85;;;24.50;55.10;;;;;;5060490;28;20465;-84
2023/07/07 11:13:06;;;;;;;6.43;1.85;;;24.60;58.70;;;;;;5065955;28;20491;-84
2023/07/07 11:15:43;;;;;;;5.30;1.75;;;24.60;55.30;;;;;;5064956;28;20028;-84
2023/07/07 11:18:29;;;;;;;3.97;1.92;;;24.70;56.80;;;;;;5062006;28;20445;-83
2023/07/07 11:21:17;;;;;;;4.60;1.92;;;24.60;52.40;;;;;;5066787;28;20036;-85
2023/07/07 11:23:55;;;;;;;4.97;1.65;;;24.50;52.10;;;;;;5056278;28;20124;-82
2023/07/07 11:27:01;;;;;;;4.93;1.60;;;24.50;53.60;;;;;;5045625;28;20029;-84
2023/07/07 11:29:39;;;;;;;4.57;1.52;;;24.70;52.10;;;;;;5061986;28;20370;-84
2023/07/07 11:32:28;;;;;;;3.67;1.70;;;24.80;56.30;;;;;;5073075;28;20051;-84
2023/07/07 11:35:13;;;;;;;5.03;2.22;;;24.90;50.60;;;;;;5087756;28;20031;-85
2023/07/07 11:37:50;;;;;;;6.80;2.00;;;25.10;52.70;;;;;;5086048;28;20476;-85
2023/07/07 11:40:38;;;;;;;3.22;1.50;;;25.10;48.50;;;;;;5086990;28;20070;-86
2023/07/07 11:43:15;;;;;;;6.85;1.95;;;25.10;52.10;;;;;;5079636;28;20020;-85
2023/07/07 11:46:05;;;;;;;2.67;1.67;;;25.10;52.50;;;;;;5080161;28;20036;-86
2023/07/07 11:48:30;;;;;;;2.67;1.60;;;25.00;52.10;;;;;;5084014;28;20032;-86
2023/07/07 11:51:24;;;;;;;2.33;1.60;;;25.00;51.30;;;;;;5078373;28;20032;-85
2023/07/07 11:54:09;;;;;;;4.65;1.83;;;24.90;50.40;;;;;;5083627;28;20085;-86
2023/07/07 11:56:41;;;;;;;2.60;1.13;;;24.80;46.50;;;;;;5070401;28;20046;-86
2023/07/07 11:59:34;;;;;;;2.03;1.40;;;24.70;47.30;;;;;;5083374;28;20024;-85
2023/07/07 12:02:02;;;;;;;3.50;1.77;;;24.70;49.00;;;;;;5074775;28;20051;-86
2023/07/07 12:04:34;;;;;;;1.80;1.40;;;24.70;52.00;;;;;;5083150;28;20028;-83
2023/07/07 12:07:05;;;;;;;2.90;1.50;;;25.00;50.80;;;;;;5079960;28;20030;-82
2023/07/07 12:09:42;;;;;;;4.57;1.60;;;25.20;47.10;;;;;;5084799;28;20043;-85
2023/07/07 12:12:19;;;;;;;3.60;1.80;;;25.30;46.60;;;;;;5083229;28;20422;-83
2023/07/07 12:15:00;;;;;;;5.47;1.38;;;25.20;47.70;;;;;;5079774;28;20092;-84
2023/07/07 12:17:32;;;;;;;2.50;1.60;;;25.20;49.00;;;;;;5078031;28;20044;-85
2023/07/07 12:20:16;;;;;;;3.58;1.70;;;25.30;46.20;;;;;;5083394;28;20078;-83
2023/07/07 12:22:43;;;;;;;1.95;1.60;;;25.40;50.10;;;;;;5065744;28;20077;-85
2023/07/07 12:25:12;;;;;;;2.35;1.50;;;25.60;46.40;;;;;;5082361;28;20103;-83
2023/07/07 12:27:43;;;;;;;5.25;1.50;;;25.70;49.20;;;;;;5065777;28;20112;-84
2023/07/07 12:30:20;;;;;;;4.95;1.85;;;25.90;47.00;;;;;;5080706;28;20111;-84
2023/07/07 12:32:46;;;;;;;2.00;1.17;;;26.00;47.40;;;;;;5080137;28;20091;-85
2023/07/07 12:35:18;;;;;;;2.28;1.70;;;25.90;42.40;;;;;;5081934;28;20032;-85
2023/07/07 12:37:44;;;;;;;1.70;1.33;;;25.80;44.30;;;;;;5086240;28;20309;-84
2023/07/07 12:40:10;;;;;;;3.05;1.67;;;25.70;40.40;;;;;;5085022;28;20024;-84
2023/07/07 12:42:38;;;;;;;3.10;1.70;;;25.80;42.70;;;;;;5082236;28;20032;-85
2023/07/07 12:45:26;;;;;;;2.30;1.50;;;25.80;41.20;;;;;;5078049;28;20042;-85
2023/07/07 12:48:04;;;;;;;3.22;1.45;;;25.70;41.20;;;;;;5082867;28;20028;-84
2023/07/07 12:50:32;;;;;;;1.65;1.20;;;25.60;41.20;;;;;;5086802;28;20443;-84
2023/07/07 12:53:05;;;;;;;4.95;1.77;;;25.70;44.70;;;;;;5080784;28;20094;-84
2023/07/07 12:55:35;;;;;;;3.15;1.50;;;25.80;43.10;;;;;;5086241;28;20110;-85
2023/07/07 12:58:06;;;;;;;3.60;1.42;;;26.10;41.50;;;;;;5063858;28;20024;-88
2023/07/07 13:00:37;;;;;;;2.60;1.58;;;26.20;40.00;;;;;;5080913;28;20435;-83
2023/07/07 13:03:09;;;;;;;2.50;1.25;;;26.30;41.50;;;;;;5076788;28;20392;-85
2023/07/07 13:05:41;;;;;;;2.95;1.52;;;26.30;39.60;;;;;;5078812;28;20158;-84